sensor_id;sensor_type;location;lat;lon;timestamp;pressure;altitude;pressure_sealevel;temperature
74750;BMP280;63269;53.330;-6.288;2023-03-01T00:01:10;103611.72;;;19.88
74750;BMP280;63269;53.330;-6.288;2023-03-01T00:03:35;103611.72;;;19.88
74750;BMP280;63269;53.330;-6.288;2023-03-01T00:06:02;103604.84;;;19.83
74750;BMP280;63269;53.330;-6.288;2023-03-01T00:08:30;103603.28;;;19.82
74750;BMP280;63269;53.330;-6.288;2023-03-01T00:11:07;103601.75;;;19.81
74750;BMP280;63269;53.330;-6.288;2023-03-01T00:13:34;103603.25;;;19.79
74750;BMP280;63269;53.330;-6.288;2023-03-01T00:16:02;103597.13;;;19.78
74750;BMP280;63269;53.330;-6.288;2023-03-01T00:18:28;103596.28;;;19.74
74750;BMP280;63269;53.330;-6.288;2023-03-01T00:20:54;103596.28;;;19.74
74750;BMP280;63269;53.330;-6.288;2023-03-01T00:23:21;103587.53;;;19.73
74750;BMP280;63269;53.330;-6.288;2023-03-01T00:25:46;103590.19;;;19.73
74750;BMP280;63269;53.330;-6.288;2023-03-01T00:28:12;103590.19;;;19.73
74750;BMP280;63269;53.330;-6.288;2023-03-01T00:30:38;103592.03;;;19.69
74750;BMP280;63269;53.330;-6.288;2023-03-01T00:33:03;103588.59;;;19.69
74750;BMP280;63269;53.330;-6.288;2023-03-01T00:35:29;103588.59;;;19.69
74750;BMP280;63269;53.330;-6.288;2023-03-01T00:37:55;103582.06;;;19.66
74750;BMP280;63269;53.330;-6.288;2023-03-01T00:40:27;103583.97;;;19.66
74750;BMP280;63269;53.330;-6.288;2023-03-01T00:42:53;103581.69;;;19.64
74750;BMP280;63269;53.330;-6.288;2023-03-01T00:45:18;103590.78;;;19.63
74750;BMP280;63269;53.330;-6.288;2023-03-01T00:47:44;103575.16;;;19.62
74750;BMP280;63269;53.330;-6.288;2023-03-01T00:50:10;103586.94;;;19.61
74750;BMP280;63269;53.330;-6.288;2023-03-01T00:52:36;103586.94;;;19.61
74750;BMP280;63269;53.330;-6.288;2023-03-01T00:55:01;103569.41;;;19.60
74750;BMP280;63269;53.330;-6.288;2023-03-01T00:57:27;103578.53;;;19.59
74750;BMP280;63269;53.330;-6.288;2023-03-01T00:59:52;103570.88;;;19.57
74750;BMP280;63269;53.330;-6.288;2023-03-01T01:02:19;103566.69;;;19.56
74750;BMP280;63269;53.330;-6.288;2023-03-01T01:04:45;103566.25;;;19.54
74750;BMP280;63269;53.330;-6.288;2023-03-01T01:07:11;103576.16;;;19.53
74750;BMP280;63269;53.330;-6.288;2023-03-01T01:09:36;103576.16;;;19.53
74750;BMP280;63269;53.330;-6.288;2023-03-01T01:12:02;103565.84;;;19.52
74750;BMP280;63269;53.330;-6.288;2023-03-01T01:14:28;103573.09;;;19.51
74750;BMP280;63269;53.330;-6.288;2023-03-01T01:16:53;103573.81;;;19.52
74750;BMP280;63269;53.330;-6.288;2023-03-01T01:19:19;103573.81;;;19.52
74750;BMP280;63269;53.330;-6.288;2023-03-01T01:21:45;103577.97;;;19.49
74750;BMP280;63269;53.330;-6.288;2023-03-01T01:24:11;103571.09;;;19.48
74750;BMP280;63269;53.330;-6.288;2023-03-01T01:26:37;103564.28;;;19.47
74750;BMP280;63269;53.330;-6.288;2023-03-01T01:29:04;103574.13;;;19.47
74750;BMP280;63269;53.330;-6.288;2023-03-01T01:31:30;103578.69;;;19.46
74750;BMP280;63269;53.330;-6.288;2023-03-01T01:33:59;103579.81;;;19.45
74750;BMP280;63269;53.330;-6.288;2023-03-01T01:36:24;103574.81;;;19.44
74750;BMP280;63269;53.330;-6.288;2023-03-01T01:38:50;103574.81;;;19.44
74750;BMP280;63269;53.330;-6.288;2023-03-01T01:41:17;103575.19;;;19.42
74750;BMP280;63269;53.330;-6.288;2023-03-01T01:43:45;103575.19;;;19.42
74750;BMP280;63269;53.330;-6.288;2023-03-01T01:46:30;103563.34;;;19.40
74750;BMP280;63269;53.330;-6.288;2023-03-01T01:49:03;103563.34;;;19.40
74750;BMP280;63269;53.330;-6.288;2023-03-01T01:51:37;103563.72;;;19.38
74750;BMP280;63269;53.330;-6.288;2023-03-01T01:54:20;103551.50;;;19.37
74750;BMP280;63269;53.330;-6.288;2023-03-01T01:56:52;103551.50;;;19.37
74750;BMP280;63269;53.330;-6.288;2023-03-01T01:59:20;103551.09;;;19.35
74750;BMP280;63269;53.330;-6.288;2023-03-01T02:01:50;103552.19;;;19.34
74750;BMP280;63269;53.330;-6.288;2023-03-01T02:04:16;103548.81;;;19.33
74750;BMP280;63269;53.330;-6.288;2023-03-01T02:06:48;103533.56;;;19.34
74750;BMP280;63269;53.330;-6.288;2023-03-01T02:09:18;103533.56;;;19.34
74750;BMP280;63269;53.330;-6.288;2023-03-01T02:11:45;103518.31;;;19.31
74750;BMP280;63269;53.330;-6.288;2023-03-01T02:14:12;103512.97;;;19.31
74750;BMP280;63269;53.330;-6.288;2023-03-01T02:16:37;103507.66;;;19.31
74750;BMP280;63269;53.330;-6.288;2023-03-01T02:19:04;103507.66;;;19.31
74750;BMP280;63269;53.330;-6.288;2023-03-01T02:24:19;103508.75;;;19.30
74750;BMP280;63269;53.330;-6.288;2023-03-01T02:26:50;103494.31;;;19.27
74750;BMP280;63269;53.330;-6.288;2023-03-01T02:29:17;103488.97;;;19.27
74750;BMP280;63269;53.330;-6.288;2023-03-01T02:31:43;103488.97;;;19.27
74750;BMP280;63269;53.330;-6.288;2023-03-01T02:34:17;103483.97;;;19.26
74750;BMP280;63269;53.330;-6.288;2023-03-01T02:36:56;103487.44;;;19.26
74750;BMP280;63269;53.330;-6.288;2023-03-01T02:39:26;103484.41;;;19.28
74750;BMP280;63269;53.330;-6.288;2023-03-01T02:41:54;103484.41;;;19.28
74750;BMP280;63269;53.330;-6.288;2023-03-01T02:44:21;103470.00;;;19.29
74750;BMP280;63269;53.330;-6.288;2023-03-01T02:46:52;103481.53;;;19.36
74750;BMP280;63269;53.330;-6.288;2023-03-01T02:49:31;103470.16;;;19.40
74750;BMP280;63269;53.330;-6.288;2023-03-01T02:54:42;103469.44;;;19.43
74750;BMP280;63269;53.330;-6.288;2023-03-01T02:57:10;103461.88;;;19.45
74750;BMP280;63269;53.330;-6.288;2023-03-01T02:59:37;103456.22;;;19.46
74750;BMP280;63269;53.330;-6.288;2023-03-01T03:02:19;103463.81;;;19.48
74750;BMP280;63269;53.330;-6.288;2023-03-01T03:04:46;103462.75;;;19.52
74750;BMP280;63269;53.330;-6.288;2023-03-01T03:07:11;103455.97;;;19.55
74750;BMP280;63269;53.330;-6.288;2023-03-01T03:09:37;103455.97;;;19.55
74750;BMP280;63269;53.330;-6.288;2023-03-01T03:12:02;103451.81;;;19.57
74750;BMP280;63269;53.330;-6.288;2023-03-01T03:14:28;103451.84;;;19.61
74750;BMP280;63269;53.330;-6.288;2023-03-01T03:16:53;103452.75;;;19.69
74750;BMP280;63269;53.330;-6.288;2023-03-01T03:19:19;103452.75;;;19.69
74750;BMP280;63269;53.330;-6.288;2023-03-01T03:21:45;103454.75;;;19.75
74750;BMP280;63269;53.330;-6.288;2023-03-01T03:24:11;103447.16;;;19.77
74750;BMP280;63269;53.330;-6.288;2023-03-01T03:26:36;103447.16;;;19.77
74750;BMP280;63269;53.330;-6.288;2023-03-01T03:29:02;103447.56;;;19.80
74750;BMP280;63269;53.330;-6.288;2023-03-01T03:31:27;103440.03;;;19.85
74750;BMP280;63269;53.330;-6.288;2023-03-01T03:33:53;103440.03;;;19.85
74750;BMP280;63269;53.330;-6.288;2023-03-01T03:36:22;103437.81;;;19.87
74750;BMP280;63269;53.330;-6.288;2023-03-01T03:38:47;103435.16;;;19.91
74750;BMP280;63269;53.330;-6.288;2023-03-01T03:41:14;103434.06;;;19.92
74750;BMP280;63269;53.330;-6.288;2023-03-01T03:43:41;103439.06;;;19.97
74750;BMP280;63269;53.330;-6.288;2023-03-01T03:46:08;103439.06;;;19.97
74750;BMP280;63269;53.330;-6.288;2023-03-01T03:48:42;103435.28;;;19.98
74750;BMP280;63269;53.330;-6.288;2023-03-01T03:51:14;103426.19;;;20.03
74750;BMP280;63269;53.330;-6.288;2023-03-01T03:53:40;103435.31;;;20.02
74750;BMP280;63269;53.330;-6.288;2023-03-01T03:56:06;103437.28;;;20.05
74750;BMP280;63269;53.330;-6.288;2023-03-01T03:58:31;103437.28;;;20.05
74750;BMP280;63269;53.330;-6.288;2023-03-01T04:00:57;103431.16;;;20.04
74750;BMP280;63269;53.330;-6.288;2023-03-01T04:03:24;103431.16;;;20.04
74750;BMP280;63269;53.330;-6.288;2023-03-01T04:05:50;103428.50;;;20.04
74750;BMP280;63269;53.330;-6.288;2023-03-01T04:08:20;103428.50;;;20.04
74750;BMP280;63269;53.330;-6.288;2023-03-01T04:10:48;103435.69;;;20.00
74750;BMP280;63269;53.330;-6.288;2023-03-01T04:13:17;103420.06;;;19.98
74750;BMP280;63269;53.330;-6.288;2023-03-01T04:15:44;103422.66;;;19.95
74750;BMP280;63269;53.330;-6.288;2023-03-01T04:18:14;103422.66;;;19.95
74750;BMP280;63269;53.330;-6.288;2023-03-01T04:20:40;103417.34;;;19.95
74750;BMP280;63269;53.330;-6.288;2023-03-01T04:23:09;103421.91;;;19.94
74750;BMP280;63269;53.330;-6.288;2023-03-01T04:25:52;103413.50;;;19.92
74750;BMP280;63269;53.330;-6.288;2023-03-01T04:28:30;103419.19;;;19.91
74750;BMP280;63269;53.330;-6.288;2023-03-01T04:31:06;103421.09;;;19.90
74750;BMP280;63269;53.330;-6.288;2023-03-01T04:33:39;103421.09;;;19.90
74750;BMP280;63269;53.330;-6.288;2023-03-01T04:36:06;103419.88;;;19.88
74750;BMP280;63269;53.330;-6.288;2023-03-01T04:38:34;103408.84;;;19.86
74750;BMP280;63269;53.330;-6.288;2023-03-01T04:41:00;103411.88;;;19.84
74750;BMP280;63269;53.330;-6.288;2023-03-01T04:43:25;103411.88;;;19.84
74750;BMP280;63269;53.330;-6.288;2023-03-01T04:45:50;103407.28;;;19.81
74750;BMP280;63269;53.330;-6.288;2023-03-01T04:48:16;103407.97;;;19.78
74750;BMP280;63269;53.330;-6.288;2023-03-01T04:50:41;103409.88;;;19.77
74750;BMP280;63269;53.330;-6.288;2023-03-01T04:53:07;103409.88;;;19.77
74750;BMP280;63269;53.330;-6.288;2023-03-01T04:55:33;103404.50;;;19.74
74750;BMP280;63269;53.330;-6.288;2023-03-01T04:57:58;103406.41;;;19.73
74750;BMP280;63269;53.330;-6.288;2023-03-01T05:00:24;103405.19;;;19.71
74750;BMP280;63269;53.330;-6.288;2023-03-01T05:02:57;103405.19;;;19.71
74750;BMP280;63269;53.330;-6.288;2023-03-01T05:05:36;103402.16;;;19.69
74750;BMP280;63269;53.330;-6.288;2023-03-01T05:08:07;103404.38;;;19.67
74750;BMP280;63269;53.330;-6.288;2023-03-01T05:10:35;103401.31;;;19.65
74750;BMP280;63269;53.330;-6.288;2023-03-01T05:13:01;103396.00;;;19.65
74750;BMP280;63269;53.330;-6.288;2023-03-01T05:15:29;103402.78;;;19.62
74750;BMP280;63269;53.330;-6.288;2023-03-01T05:17:56;103402.78;;;19.62
74750;BMP280;63269;53.330;-6.288;2023-03-01T05:20:23;103397.09;;;19.60
74750;BMP280;63269;53.330;-6.288;2023-03-01T05:22:55;103395.53;;;19.59
74750;BMP280;63269;53.330;-6.288;2023-03-01T05:25:21;103400.50;;;19.61
74750;BMP280;63269;53.330;-6.288;2023-03-01T05:27:47;103394.03;;;19.62
74750;BMP280;63269;53.330;-6.288;2023-03-01T05:30:13;103395.59;;;19.63
74750;BMP280;63269;53.330;-6.288;2023-03-01T05:32:46;103394.50;;;19.67
74750;BMP280;63269;53.330;-6.288;2023-03-01T05:35:13;103381.59;;;19.69
74750;BMP280;63269;53.330;-6.288;2023-03-01T05:37:44;103381.59;;;19.69
74750;BMP280;63269;53.330;-6.288;2023-03-01T05:40:21;103380.88;;;19.72
74750;BMP280;63269;53.330;-6.288;2023-03-01T05:42:49;103377.16;;;19.77
74750;BMP280;63269;53.330;-6.288;2023-03-01T05:45:16;103373.75;;;19.80
74750;BMP280;63269;53.330;-6.288;2023-03-01T05:47:43;103383.69;;;19.83
74750;BMP280;63269;53.330;-6.288;2023-03-01T05:50:21;103386.84;;;19.92
74750;BMP280;63269;53.330;-6.288;2023-03-01T05:52:51;103386.84;;;19.92
74750;BMP280;63269;53.330;-6.288;2023-03-01T05:55:19;103384.25;;;19.96
74750;BMP280;63269;53.330;-6.288;2023-03-01T05:57:45;103384.25;;;19.96
74750;BMP280;63269;53.330;-6.288;2023-03-01T06:00:12;103397.97;;;19.98
74750;BMP280;63269;53.330;-6.288;2023-03-01T06:02:38;103403.31;;;20.02
74750;BMP280;63269;53.330;-6.288;2023-03-01T06:05:05;103412.53;;;20.04
74750;BMP280;63269;53.330;-6.288;2023-03-01T06:07:31;103410.22;;;20.06
74750;BMP280;63269;53.330;-6.288;2023-03-01T06:09:56;103410.22;;;20.06
74750;BMP280;63269;53.330;-6.288;2023-03-01T06:12:22;103413.72;;;20.10
74750;BMP280;63269;53.330;-6.288;2023-03-01T06:14:47;103413.72;;;20.10
74750;BMP280;63269;53.330;-6.288;2023-03-01T06:17:13;103421.78;;;20.14
74750;BMP280;63269;53.330;-6.288;2023-03-01T06:19:39;103417.94;;;20.15
74750;BMP280;63269;53.330;-6.288;2023-03-01T06:22:04;103421.81;;;20.17
74750;BMP280;63269;53.330;-6.288;2023-03-01T06:24:29;103419.16;;;20.17
74750;BMP280;63269;53.330;-6.288;2023-03-01T06:26:55;103420.31;;;20.20
74750;BMP280;63269;53.330;-6.288;2023-03-01T06:29:21;103420.31;;;20.20
74750;BMP280;63269;53.330;-6.288;2023-03-01T06:31:47;103422.25;;;20.23
74750;BMP280;63269;53.330;-6.288;2023-03-01T06:34:13;103422.25;;;20.23
74750;BMP280;63269;53.330;-6.288;2023-03-01T06:36:39;103429.13;;;20.24
74750;BMP280;63269;53.330;-6.288;2023-03-01T06:39:04;103426.50;;;20.28
74750;BMP280;63269;53.330;-6.288;2023-03-01T06:41:31;103416.59;;;20.28
74750;BMP280;63269;53.330;-6.288;2023-03-01T06:43:56;103416.25;;;20.30
74750;BMP280;63269;53.330;-6.288;2023-03-01T06:46:21;103407.91;;;20.31
74750;BMP280;63269;53.330;-6.288;2023-03-01T06:48:47;103405.97;;;20.32
74750;BMP280;63269;53.330;-6.288;2023-03-01T06:51:13;103415.16;;;20.34
74750;BMP280;63269;53.330;-6.288;2023-03-01T06:53:38;103413.28;;;20.35
74750;BMP280;63269;53.330;-6.288;2023-03-01T06:56:04;103407.94;;;20.35
74750;BMP280;63269;53.330;-6.288;2023-03-01T06:58:29;103420.91;;;20.36
74750;BMP280;63269;53.330;-6.288;2023-03-01T07:00:55;103413.31;;;20.38
74750;BMP280;63269;53.330;-6.288;2023-03-01T07:03:20;103407.97;;;20.38
74750;BMP280;63269;53.330;-6.288;2023-03-01T07:05:48;103412.94;;;20.40
74750;BMP280;63269;53.330;-6.288;2023-03-01T07:08:14;103415.22;;;20.42
74750;BMP280;63269;53.330;-6.288;2023-03-01T07:10:40;103411.44;;;20.43
74750;BMP280;63269;53.330;-6.288;2023-03-01T07:13:05;103415.66;;;20.44
74750;BMP280;63269;53.330;-6.288;2023-03-01T07:15:32;103423.28;;;20.45
74750;BMP280;63269;53.330;-6.288;2023-03-01T07:17:58;103424.03;;;20.46
74750;BMP280;63269;53.330;-6.288;2023-03-01T07:20:23;103422.16;;;20.46
74750;BMP280;63269;53.330;-6.288;2023-03-01T07:22:51;103424.81;;;20.46
74750;BMP280;63269;53.330;-6.288;2023-03-01T07:25:17;103428.66;;;20.49
74750;BMP280;63269;53.330;-6.288;2023-03-01T07:27:43;103420.66;;;20.49
74750;BMP280;63269;53.330;-6.288;2023-03-01T07:30:08;103428.28;;;20.50
74750;BMP280;63269;53.330;-6.288;2023-03-01T07:32:34;103426.41;;;20.51
74750;BMP280;63269;53.330;-6.288;2023-03-01T07:34:59;103427.16;;;20.51
74750;BMP280;63269;53.330;-6.288;2023-03-01T07:37:25;103418.41;;;20.51
74750;BMP280;63269;53.330;-6.288;2023-03-01T07:39:50;103427.56;;;20.53
74750;BMP280;63269;53.330;-6.288;2023-03-01T07:42:16;103426.41;;;20.54
74750;BMP280;63269;53.330;-6.288;2023-03-01T07:44:41;103430.63;;;20.55
74750;BMP280;63269;53.330;-6.288;2023-03-01T07:47:06;103431.75;;;20.54
74750;BMP280;63269;53.330;-6.288;2023-03-01T07:49:32;103426.84;;;20.56
74750;BMP280;63269;53.330;-6.288;2023-03-01T07:51:57;103423.03;;;20.57
74750;BMP280;63269;53.330;-6.288;2023-03-01T07:54:23;103428.38;;;20.57
74750;BMP280;63269;53.330;-6.288;2023-03-01T07:56:48;103427.22;;;20.58
74750;BMP280;63269;53.330;-6.288;2023-03-01T07:59:14;103427.22;;;20.58
74750;BMP280;63269;53.330;-6.288;2023-03-01T08:01:39;103423.44;;;20.59
74750;BMP280;63269;53.330;-6.288;2023-03-01T08:04:05;103423.44;;;20.59
74750;BMP280;63269;53.330;-6.288;2023-03-01T08:06:34;103423.06;;;20.61
74750;BMP280;63269;53.330;-6.288;2023-03-01T08:08:59;103423.06;;;20.61
74750;BMP280;63269;53.330;-6.288;2023-03-01T08:11:25;103430.34;;;20.64
74750;BMP280;63269;53.330;-6.288;2023-03-01T08:13:53;103426.91;;;20.64
74750;BMP280;63269;53.330;-6.288;2023-03-01T08:16:19;103426.91;;;20.64
74750;BMP280;63269;53.330;-6.288;2023-03-01T08:18:44;103435.31;;;20.66
74750;BMP280;63269;53.330;-6.288;2023-03-01T08:21:12;103428.84;;;20.67
74750;BMP280;63269;53.330;-6.288;2023-03-01T08:23:38;103428.84;;;20.67
74750;BMP280;63269;53.330;-6.288;2023-03-01T08:26:15;103438.38;;;20.68
74750;BMP280;63269;53.330;-6.288;2023-03-01T08:28:42;103428.88;;;20.70
74750;BMP280;63269;53.330;-6.288;2023-03-01T08:33:42;103428.53;;;20.72
74750;BMP280;63269;53.330;-6.288;2023-03-01T08:36:07;103426.25;;;20.74
74750;BMP280;63269;53.330;-6.288;2023-03-01T08:38:34;103428.53;;;20.75
74750;BMP280;63269;53.330;-6.288;2023-03-01T08:41:01;103428.53;;;20.75
74750;BMP280;63269;53.330;-6.288;2023-03-01T08:43:26;103436.97;;;20.77
74750;BMP280;63269;53.330;-6.288;2023-03-01T08:45:52;103436.97;;;20.77
74750;BMP280;63269;53.330;-6.288;2023-03-01T08:48:17;103436.19;;;20.77
74750;BMP280;63269;53.330;-6.288;2023-03-01T08:50:42;103443.44;;;20.80
74750;BMP280;63269;53.330;-6.288;2023-03-01T08:53:08;103443.44;;;20.80
74750;BMP280;63269;53.330;-6.288;2023-03-01T08:55:33;103438.09;;;20.80
74750;BMP280;63269;53.330;-6.288;2023-03-01T08:57:59;103442.31;;;20.81
74750;BMP280;63269;53.330;-6.288;2023-03-01T09:00:24;103448.44;;;20.82
74750;BMP280;63269;53.330;-6.288;2023-03-01T09:02:50;103447.69;;;20.85
74750;BMP280;63269;53.330;-6.288;2023-03-01T09:05:15;103449.22;;;20.86
74750;BMP280;63269;53.330;-6.288;2023-03-01T09:07:40;103452.28;;;20.88
74750;BMP280;63269;53.330;-6.288;2023-03-01T09:10:06;103452.28;;;20.88
74750;BMP280;63269;53.330;-6.288;2023-03-01T09:12:32;103448.50;;;20.89
74750;BMP280;63269;53.330;-6.288;2023-03-01T09:14:57;103449.25;;;20.89
74750;BMP280;63269;53.330;-6.288;2023-03-01T09:17:22;103444.69;;;20.90
74750;BMP280;63269;53.330;-6.288;2023-03-01T09:19:48;103444.69;;;20.90
74750;BMP280;63269;53.330;-6.288;2023-03-01T09:22:14;103445.84;;;20.89
74750;BMP280;63269;53.330;-6.288;2023-03-01T09:24:39;103451.56;;;20.91
74750;BMP280;63269;53.330;-6.288;2023-03-01T09:27:06;103451.56;;;20.91
74750;BMP280;63269;53.330;-6.288;2023-03-01T09:29:36;103445.09;;;20.92
74750;BMP280;63269;53.330;-6.288;2023-03-01T09:32:02;103448.16;;;20.94
74750;BMP280;63269;53.330;-6.288;2023-03-01T09:34:27;103448.16;;;20.94
74750;BMP280;63269;53.330;-6.288;2023-03-01T09:36:53;103444.38;;;20.95
74750;BMP280;63269;53.330;-6.288;2023-03-01T09:39:19;103444.38;;;20.95
74750;BMP280;63269;53.330;-6.288;2023-03-01T09:44:39;103444.38;;;20.95
74750;BMP280;63269;53.330;-6.288;2023-03-01T09:47:11;103450.47;;;20.95
74750;BMP280;63269;53.330;-6.288;2023-03-01T09:49:41;103445.91;;;20.96
74750;BMP280;63269;53.330;-6.288;2023-03-01T09:54:44;103433.69;;;20.95
74750;BMP280;63269;53.330;-6.288;2023-03-01T09:57:19;103443.63;;;20.94
74750;BMP280;63269;53.330;-6.288;2023-03-01T10:00:17;103454.31;;;20.98
74750;BMP280;63269;53.330;-6.288;2023-03-01T10:02:49;103454.31;;;20.98
74750;BMP280;63269;53.330;-6.288;2023-03-01T10:05:43;103442.06;;;20.97
74750;BMP280;63269;53.330;-6.288;2023-03-01T10:10:38;103439.78;;;20.95
74750;BMP280;63269;53.330;-6.288;2023-03-01T10:13:15;103445.91;;;20.96
74750;BMP280;63269;53.330;-6.288;2023-03-01T10:15:55;103440.97;;;20.98
74750;BMP280;63269;53.330;-6.288;2023-03-01T10:18:26;103440.97;;;20.98
74750;BMP280;63269;53.330;-6.288;2023-03-01T10:20:59;103432.94;;;20.98
74750;BMP280;63269;53.330;-6.288;2023-03-01T10:23:26;103440.97;;;20.98
74750;BMP280;63269;53.330;-6.288;2023-03-01T10:26:27;103441.75;;;20.98
74750;BMP280;63269;53.330;-6.288;2023-03-01T10:29:09;103429.91;;;20.99
74750;BMP280;63269;53.330;-6.288;2023-03-01T10:31:49;103435.63;;;20.98
74750;BMP280;63269;53.330;-6.288;2023-03-01T10:34:22;103431.06;;;20.98
74750;BMP280;63269;53.330;-6.288;2023-03-01T10:36:56;103427.25;;;20.99
74750;BMP280;63269;53.330;-6.288;2023-03-01T10:39:25;103428.41;;;20.98
74750;BMP280;63269;53.330;-6.288;2023-03-01T10:42:01;103428.41;;;20.98
74750;BMP280;63269;53.330;-6.288;2023-03-01T10:47:22;103430.69;;;21.00
74750;BMP280;63269;53.330;-6.288;2023-03-01T10:52:21;103416.19;;;21.01
74750;BMP280;63269;53.330;-6.288;2023-03-01T10:54:58;103412.00;;;21.00
74750;BMP280;63269;53.330;-6.288;2023-03-01T10:57:29;103412.00;;;21.00
74750;BMP280;63269;53.330;-6.288;2023-03-01T11:02:49;103405.50;;;21.01
74750;BMP280;63269;53.330;-6.288;2023-03-01T11:05:22;103405.50;;;21.01
74750;BMP280;63269;53.330;-6.288;2023-03-01T11:07:58;103407.81;;;21.03
74750;BMP280;63269;53.330;-6.288;2023-03-01T11:13:05;103399.41;;;21.00
74750;BMP280;63269;53.330;-6.288;2023-03-01T11:15:31;103392.16;;;21.01
74750;BMP280;63269;53.330;-6.288;2023-03-01T11:17:57;103392.16;;;21.01
74750;BMP280;63269;53.330;-6.288;2023-03-01T11:23:15;103393.72;;;21.02
74750;BMP280;63269;53.330;-6.288;2023-03-01T11:25:55;103393.72;;;21.02
74750;BMP280;63269;53.330;-6.288;2023-03-01T11:28:21;103393.72;;;21.02
74750;BMP280;63269;53.330;-6.288;2023-03-01T11:30:52;103390.28;;;21.02
74750;BMP280;63269;53.330;-6.288;2023-03-01T11:33:53;103387.25;;;21.03
74750;BMP280;63269;53.330;-6.288;2023-03-01T11:36:41;103391.03;;;21.02
74750;BMP280;63269;53.330;-6.288;2023-03-01T11:42:03;103375.38;;;21.00
74750;BMP280;63269;53.330;-6.288;2023-03-01T11:44:33;103381.47;;;21.01
74750;BMP280;63269;53.330;-6.288;2023-03-01T12:06:55;103352.56;;;21.03
74750;BMP280;63269;53.330;-6.288;2023-03-01T12:09:46;103349.88;;;21.03
74750;BMP280;63269;53.330;-6.288;2023-03-01T12:12:33;103349.88;;;21.03
74750;BMP280;63269;53.330;-6.288;2023-03-01T12:21:03;103328.91;;;21.02
74750;BMP280;63269;53.330;-6.288;2023-03-01T12:26:39;103325.88;;;21.03
74750;BMP280;63269;53.330;-6.288;2023-03-01T12:42:58;103292.28;;;21.02
74750;BMP280;63269;53.330;-6.288;2023-03-01T12:48:08;103275.91;;;21.04
74750;BMP280;63269;53.330;-6.288;2023-03-01T12:50:42;103259.50;;;21.05
74750;BMP280;63269;53.330;-6.288;2023-03-01T12:53:39;103259.50;;;21.05
74750;BMP280;63269;53.330;-6.288;2023-03-01T12:56:07;103261.41;;;21.05
74750;BMP280;63269;53.330;-6.288;2023-03-01T13:01:34;103259.13;;;21.07
74750;BMP280;63269;53.330;-6.288;2023-03-01T13:04:29;103259.91;;;21.07
74750;BMP280;63269;53.330;-6.288;2023-03-01T13:06:58;103250.00;;;21.08
74750;BMP280;63269;53.330;-6.288;2023-03-01T13:09:51;103236.66;;;21.08
74750;BMP280;63269;53.330;-6.288;2023-03-01T13:20:20;103226.72;;;21.08
74750;BMP280;63269;53.330;-6.288;2023-03-01T13:22:46;103226.72;;;21.08
74750;BMP280;63269;53.330;-6.288;2023-03-01T13:25:19;103223.66;;;21.10
74750;BMP280;63269;53.330;-6.288;2023-03-01T13:27:46;103215.66;;;21.10
74750;BMP280;63269;53.330;-6.288;2023-03-01T13:35:56;103211.47;;;21.09
74750;BMP280;63269;53.330;-6.288;2023-03-01T13:38:45;103213.78;;;21.10
74750;BMP280;63269;53.330;-6.288;2023-03-01T13:41:12;103213.78;;;21.10
74750;BMP280;63269;53.330;-6.288;2023-03-01T13:43:41;103206.91;;;21.09
74750;BMP280;63269;53.330;-6.288;2023-03-01T13:46:19;103214.53;;;21.11
74750;BMP280;63269;53.330;-6.288;2023-03-01T13:48:49;103199.66;;;21.10
74750;BMP280;63269;53.330;-6.288;2023-03-01T13:51:16;103201.97;;;21.11
74750;BMP280;63269;53.330;-6.288;2023-03-01T13:53:46;103201.97;;;21.11
74750;BMP280;63269;53.330;-6.288;2023-03-01T13:56:26;103204.22;;;21.09
74750;BMP280;63269;53.330;-6.288;2023-03-01T13:59:04;103215.69;;;21.13
74750;BMP280;63269;53.330;-6.288;2023-03-01T14:01:33;103215.69;;;21.13
74750;BMP280;63269;53.330;-6.288;2023-03-01T14:04:00;103210.00;;;21.11
74750;BMP280;63269;53.330;-6.288;2023-03-01T14:06:28;103206.16;;;21.12
74750;BMP280;63269;53.330;-6.288;2023-03-01T14:09:12;103206.16;;;21.12
74750;BMP280;63269;53.330;-6.288;2023-03-01T14:14:51;103192.41;;;21.14
74750;BMP280;63269;53.330;-6.288;2023-03-01T14:20:07;103188.63;;;21.15
74750;BMP280;63269;53.330;-6.288;2023-03-01T14:22:34;103186.31;;;21.13
74750;BMP280;63269;53.330;-6.288;2023-03-01T14:30:48;103180.97;;;21.13
74750;BMP280;63269;53.330;-6.288;2023-03-01T14:40:59;103168.81;;;21.16
74750;BMP280;63269;53.330;-6.288;2023-03-01T14:43:27;103166.91;;;21.16
74750;BMP280;63269;53.330;-6.288;2023-03-01T14:45:54;103166.91;;;21.16
74750;BMP280;63269;53.330;-6.288;2023-03-01T14:48:19;103162.69;;;21.15
74750;BMP280;63269;53.330;-6.288;2023-03-01T14:50:45;103157.34;;;21.15
74750;BMP280;63269;53.330;-6.288;2023-03-01T14:53:23;103157.34;;;21.15
74750;BMP280;63269;53.330;-6.288;2023-03-01T14:55:54;103155.47;;;21.16
74750;BMP280;63269;53.330;-6.288;2023-03-01T14:58:24;103157.72;;;21.14
74750;BMP280;63269;53.330;-6.288;2023-03-01T15:00:53;103152.38;;;21.14
74750;BMP280;63269;53.330;-6.288;2023-03-01T15:03:33;103148.59;;;21.11
74750;BMP280;63269;53.330;-6.288;2023-03-01T15:06:04;103141.72;;;21.10
74750;BMP280;63269;53.330;-6.288;2023-03-01T15:08:31;103141.72;;;21.10
74750;BMP280;63269;53.330;-6.288;2023-03-01T15:13:40;103129.91;;;21.04
74750;BMP280;63269;53.330;-6.288;2023-03-01T15:18:32;103127.16;;;21.00
74750;BMP280;63269;53.330;-6.288;2023-03-01T15:21:13;103127.56;;;20.99
74750;BMP280;63269;53.330;-6.288;2023-03-01T15:23:39;103127.56;;;20.99
74750;BMP280;63269;53.330;-6.288;2023-03-01T15:26:06;103126.78;;;20.95
74750;BMP280;63269;53.330;-6.288;2023-03-01T15:28:34;103116.47;;;20.93
74750;BMP280;63269;53.330;-6.288;2023-03-01T15:33:46;103114.16;;;20.88
74750;BMP280;63269;53.330;-6.288;2023-03-01T15:38:59;103110.34;;;20.82
74750;BMP280;63269;53.330;-6.288;2023-03-01T15:41:27;103110.34;;;20.82
74750;BMP280;63269;53.330;-6.288;2023-03-01T15:43:57;103099.66;;;20.78
74750;BMP280;63269;53.330;-6.288;2023-03-01T15:46:33;103105.34;;;20.77
74750;BMP280;63269;53.330;-6.288;2023-03-01T15:49:05;103098.50;;;20.76
74750;BMP280;63269;53.330;-6.288;2023-03-01T15:51:36;103088.56;;;20.69
74750;BMP280;63269;53.330;-6.288;2023-03-01T15:54:03;103088.56;;;20.69
74750;BMP280;63269;53.330;-6.288;2023-03-01T15:56:30;103080.53;;;20.66
74750;BMP280;63269;53.330;-6.288;2023-03-01T15:58:59;103080.53;;;20.66